Time;durP1;ratioP1;P1;durP2;ratioP2;P2;SDS_P1;SDS_P2;PMS_P1;PMS_P2;Temp;Humidity;BMP_temperature;BMP_pressure;BME280_temperature;BME280_humidity;BME280_pressure;Samples;Min_cycle;Max_cycle;Signal;HPM_P1;HPM_P2
2021/10/07 00:01:22;;;;;;;;;46.50;40.50;17.70;55.10;;;;;;5056860;28;8763;-70
2021/10/07 00:03:48;;;;;;;;;42.00;37.00;17.70;55.20;;;;;;5056730;28;8763;-72
2021/10/07 00:06:13;;;;;;;;;46.00;39.25;17.50;54.40;;;;;;5056826;28;8771;-71
2021/10/07 00:08:40;;;;;;;;;44.75;38.75;17.80;55.10;;;;;;5057033;28;8811;-71
2021/10/07 00:11:06;;;;;;;;;46.00;39.00;18.00;54.50;;;;;;5056952;28;8871;-70
2021/10/07 00:13:31;;;;;;;;;40.50;37.25;17.70;54.20;;;;;;5056798;28;9417;-72
2021/10/07 00:15:58;;;;;;;;;33.00;32.50;18.00;54.60;;;;;;5056774;28;9465;-70
2021/10/07 00:18:23;;;;;;;;;44.00;38.25;17.80;53.80;;;;;;5056610;28;8775;-71
2021/10/07 00:20:49;;;;;;;;;39.75;35.50;17.70;54.50;;;;;;5056399;28;8798;-71
2021/10/07 00:23:20;;;;;;;;;37.25;33.50;17.80;54.50;;;;;;5056440;28;8771;-70
2021/10/07 00:25:46;;;;;;;;;38.25;33.75;17.60;55.10;;;;;;5056493;28;8755;-70
2021/10/07 00:28:12;;;;;;;;;33.50;32.50;17.60;54.70;;;;;;5056401;28;8793;-71
2021/10/07 00:30:40;;;;;;;;;39.75;35.75;17.30;54.80;;;;;;5056275;28;8775;-70
2021/10/07 00:33:14;;;;;;;;;33.50;32.50;17.60;55.90;;;;;;5056304;28;8789;-72
2021/10/07 00:40:51;;;;;;;;;34.50;33.75;17.30;56.20;;;;;;5056239;28;9377;-69
2021/10/07 00:43:17;;;;;;;;;35.25;32.75;17.20;56.00;;;;;;5056359;28;9397;-70
2021/10/07 00:45:52;;;;;;;;;39.25;35.50;17.20;56.70;;;;;;5056017;28;9377;-69
2021/10/07 00:48:18;;;;;;;;;35.00;34.00;17.30;56.10;;;;;;5056251;28;9573;-70
2021/10/07 00:50:45;;;;;;;;;37.25;36.00;17.30;56.70;;;;;;5055921;28;9514;-69
2021/10/07 00:53:12;;;;;;;;;40.50;37.50;16.90;57.00;;;;;;5055842;28;8783;-69
2021/10/07 00:55:39;;;;;;;;;31.00;30.50;16.80;57.30;;;;;;5055969;28;8806;-70
2021/10/07 00:58:06;;;;;;;;;38.00;35.00;16.80;57.10;;;;;;5055814;28;8777;-72
2021/10/07 01:00:31;;;;;;;;;38.00;35.00;16.90;57.70;;;;;;5055907;28;8763;-70
2021/10/07 01:02:57;;;;;;;;;37.75;35.75;16.60;57.30;;;;;;5055715;28;8825;-70
2021/10/07 01:05:23;;;;;;;;;38.75;35.75;16.60;58.10;;;;;;5055502;28;8779;-72
2021/10/07 01:07:51;;;;;;;;;34.00;33.00;16.90;57.30;;;;;;5054554;28;8839;-70
2021/10/07 01:10:16;;;;;;;;;38.75;36.00;16.80;57.90;;;;;;5055703;28;8767;-70
2021/10/07 01:12:42;;;;;;;;;39.25;36.00;16.70;58.30;;;;;;5055691;28;8881;-71
2021/10/07 01:15:08;;;;;;;;;37.00;35.00;16.90;58.10;;;;;;5055650;28;8875;-71
2021/10/07 01:17:34;;;;;;;;;34.00;33.00;16.60;58.10;;;;;;5055603;28;9470;-70
2021/10/07 01:20:03;;;;;;;;;39.00;36.25;16.80;58.30;;;;;;5055296;28;8774;-70
2021/10/07 01:22:30;;;;;;;;;27.00;27.00;17.00;58.30;;;;;;5055516;28;8795;-71
2021/10/07 01:24:57;;;;;;;;;34.75;33.75;16.80;57.90;;;;;;5055335;28;8778;-73
2021/10/07 01:27:26;;;;;;;;;22.25;22.25;16.90;59.00;;;;;;5055189;28;8771;-70
2021/10/07 01:29:57;;;;;;;;;31.33;31.33;16.90;58.00;;;;;;5055102;28;8882;-73
2021/10/07 01:32:23;;;;;;;;;28.67;28.67;17.10;58.40;;;;;;5054710;28;8943;-71
2021/10/07 01:34:49;;;;;;;;;32.33;32.00;17.00;58.00;;;;;;5055080;28;8791;-73
2021/10/07 01:37:15;;;;;;;;;34.00;32.00;17.10;57.50;;;;;;5054727;28;8803;-72
2021/10/07 01:39:41;;;;;;;;;31.00;30.00;17.10;57.70;;;;;;5054924;28;8791;-71
2021/10/07 01:42:07;;;;;;;;;27.67;27.33;17.00;58.10;;;;;;5054950;28;8924;-70
2021/10/07 01:44:33;;;;;;;;;22.00;22.00;17.20;57.60;;;;;;5055149;28;8869;-72
2021/10/07 01:46:59;;;;;;;;;34.00;33.00;17.10;57.80;;;;;;5055180;28;8872;-71
2021/10/07 01:49:26;;;;;;;;;31.33;31.00;17.00;57.50;;;;;;5055079;28;8795;-70
2021/10/07 01:51:51;;;;;;;;;33.00;32.33;17.00;57.90;;;;;;5054790;28;8750;-73
2021/10/07 01:54:17;;;;;;;;;34.67;33.00;17.00;58.00;;;;;;5054939;28;8913;-70
2021/10/07 01:56:43;;;;;;;;;27.33;27.33;17.10;57.00;;;;;;5054941;28;8785;-72
2021/10/07 01:59:09;;;;;;;;;27.00;27.00;17.30;57.40;;;;;;5054711;28;8792;-70
2021/10/07 02:01:35;;;;;;;;;26.67;26.67;17.50;57.30;;;;;;5054585;28;8782;-69
2021/10/07 02:04:06;;;;;;;;;31.00;31.00;17.50;56.40;;;;;;5054491;28;8794;-68
2021/10/07 02:06:32;;;;;;;;;22.00;22.00;17.20;56.50;;;;;;5054671;28;8889;-70
2021/10/07 02:08:58;;;;;;;;;28.00;28.00;17.20;57.20;;;;;;5054738;28;8783;-71
2021/10/07 02:11:23;;;;;;;;;28.67;28.67;17.20;57.50;;;;;;5054690;28;8775;-70
2021/10/07 02:13:53;;;;;;;;;26.33;26.33;17.50;57.10;;;;;;5054317;28;8779;-70
2021/10/07 02:16:18;;;;;;;;;25.33;25.33;17.40;57.00;;;;;;5054421;28;8763;-70
2021/10/07 02:18:44;;;;;;;;;30.00;29.00;17.40;57.30;;;;;;5054385;28;8777;-71
2021/10/07 02:21:10;;;;;;;;;27.33;27.33;17.20;57.40;;;;;;5054278;28;8791;-74
2021/10/07 02:23:36;;;;;;;;;25.00;24.33;17.30;57.20;;;;;;5054583;28;8840;-70
2021/10/07 02:26:02;;;;;;;;;30.67;30.67;17.40;57.50;;;;;;5054539;28;8789;-72
2021/10/07 02:28:28;;;;;;;;;26.67;26.67;17.50;56.80;;;;;;5054179;28;8774;-70
2021/10/07 02:30:54;;;;;;;;;25.33;25.33;17.30;56.60;;;;;;5054218;28;8794;-71
2021/10/07 02:33:20;;;;;;;;;25.33;25.33;17.30;57.60;;;;;;5054205;28;8814;-71
2021/10/07 02:35:45;;;;;;;;;26.00;26.00;17.40;57.40;;;;;;5054366;28;8815;-71
2021/10/07 02:38:12;;;;;;;;;25.00;25.00;17.50;57.10;;;;;;5054195;28;8827;-73
2021/10/07 02:40:38;;;;;;;;;27.67;27.67;17.60;56.60;;;;;;5054163;28;8771;-72
2021/10/07 02:43:03;;;;;;;;;28.00;28.00;17.60;56.70;;;;;;5055805;28;8763;-71
2021/10/07 02:45:29;;;;;;;;;28.33;28.33;17.40;55.90;;;;;;5058301;28;8787;-70
2021/10/07 02:47:55;;;;;;;;;26.33;26.33;17.40;56.40;;;;;;5058282;28;8786;-72
2021/10/07 02:50:23;;;;;;;;;28.33;28.33;17.60;56.70;;;;;;5058217;28;8783;-70
2021/10/07 02:52:49;;;;;;;;;24.67;24.67;17.70;56.20;;;;;;5058411;28;9437;-68
2021/10/07 02:55:15;;;;;;;;;24.67;24.67;17.90;56.10;;;;;;5058269;28;8795;-69
2021/10/07 02:57:42;;;;;;;;;27.00;27.00;17.80;55.60;;;;;;5058040;28;8766;-73
2021/10/07 03:00:10;;;;;;;;;28.00;28.00;17.80;55.80;;;;;;5058271;28;8755;-72
2021/10/07 03:02:37;;;;;;;;;22.33;22.33;17.90;55.70;;;;;;5057970;28;8833;-72
2021/10/07 03:05:04;;;;;;;;;26.67;26.67;17.70;55.60;;;;;;5058196;28;8755;-72
2021/10/07 03:07:30;;;;;;;;;26.33;25.00;17.80;55.80;;;;;;5058028;28;8844;-71
2021/10/07 03:09:57;;;;;;;;;25.67;25.67;17.80;55.70;;;;;;5057779;28;8840;-70
2021/10/07 03:12:23;;;;;;;;;23.67;23.67;17.80;55.50;;;;;;5057732;28;8889;-70
2021/10/07 03:14:49;;;;;;;;;27.00;27.00;17.80;55.60;;;;;;5057701;28;8814;-72
2021/10/07 03:17:16;;;;;;;;;25.00;25.00;17.90;56.00;;;;;;5057674;28;8840;-70
2021/10/07 03:19:42;;;;;;;;;27.33;27.33;17.90;55.50;;;;;;5057646;28;8779;-72
2021/10/07 03:22:09;;;;;;;;;27.67;27.67;17.90;55.80;;;;;;5057820;28;8767;-69
2021/10/07 03:24:35;;;;;;;;;26.00;26.00;17.80;55.20;;;;;;5057546;28;8848;-70
2021/10/07 03:27:03;;;;;;;;;25.67;25.67;17.70;55.70;;;;;;5057471;28;8894;-71
2021/10/07 03:29:30;;;;;;;;;24.33;24.33;18.00;55.80;;;;;;5057450;28;8790;-71
2021/10/07 03:31:56;;;;;;;;;28.00;28.00;17.80;55.10;;;;;;5057634;28;8839;-71
2021/10/07 03:34:23;;;;;;;;;25.00;25.00;17.90;55.40;;;;;;5057494;28;8787;-72
2021/10/07 03:36:48;;;;;;;;;25.33;25.33;17.90;54.50;;;;;;5057430;28;8787;-72
2021/10/07 03:39:14;;;;;;;;;26.67;26.67;17.90;55.10;;;;;;5070267;28;9474;-70
2021/10/07 03:41:40;;;;;;;;;25.67;25.67;17.80;54.60;;;;;;5090609;28;8869;-71
2021/10/07 03:44:06;;;;;;;;;23.33;23.33;17.80;54.80;;;;;;5094422;28;8833;-70
2021/10/07 03:46:32;;;;;;;;;27.33;27.33;17.90;55.20;;;;;;5097365;28;8783;-70
2021/10/07 03:48:58;;;;;;;;;26.00;26.00;18.00;54.90;;;;;;5097685;28;8748;-72
2021/10/07 03:51:24;;;;;;;;;28.67;28.67;18.20;54.00;;;;;;5097323;28;8769;-69
2021/10/07 03:53:50;;;;;;;;;26.33;25.67;18.40;53.80;;;;;;5097319;28;9462;-70
2021/10/07 03:56:16;;;;;;;;;26.00;26.00;18.20;53.70;;;;;;5096581;28;8764;-70
2021/10/07 03:58:42;;;;;;;;;25.33;25.33;18.00;53.20;;;;;;5097464;28;8768;-72
2021/10/07 04:01:08;;;;;;;;;23.00;23.00;18.00;53.80;;;;;;5097099;28;8756;-71
2021/10/07 04:03:34;;;;;;;;;23.67;23.67;18.00;53.50;;;;;;5097339;28;8932;-70
2021/10/07 04:06:00;;;;;;;;;24.67;24.67;17.80;53.90;;;;;;5096972;28;8898;-71
2021/10/07 04:08:26;;;;;;;;;23.33;23.33;17.70;54.20;;;;;;5097383;28;8909;-71
2021/10/07 04:10:51;;;;;;;;;25.33;25.33;17.80;53.90;;;;;;5096982;28;9405;-70
2021/10/07 04:13:22;;;;;;;;;24.00;24.00;17.70;54.20;;;;;;5096711;28;9430;-72
2021/10/07 04:15:49;;;;;;;;;21.00;21.00;17.90;53.90;;;;;;5097000;28;8799;-73
2021/10/07 04:18:16;;;;;;;;;22.67;22.67;18.00;53.20;;;;;;5097096;28;8752;-72
2021/10/07 04:20:43;;;;;;;;;21.33;21.33;18.10;53.20;;;;;;5096738;28;8764;-73
2021/10/07 04:23:10;;;;;;;;;28.00;27.67;18.00;53.00;;;;;;5096626;28;8775;-70
2021/10/07 04:25:36;;;;;;;;;22.33;22.33;18.10;52.90;;;;;;5096966;28;9483;-70
2021/10/07 04:28:04;;;;;;;;;25.67;25.67;18.00;52.50;;;;;;5096827;28;8771;-72
2021/10/07 04:30:30;;;;;;;;;24.00;24.00;18.00;51.90;;;;;;5096527;28;8886;-70
2021/10/07 04:32:56;;;;;;;;;24.00;24.00;18.10;52.80;;;;;;5096424;28;8895;-72
2021/10/07 04:35:22;;;;;;;;;22.00;22.00;18.10;52.70;;;;;;5096546;28;8876;-70
2021/10/07 04:37:48;;;;;;;;;21.67;21.67;18.10;52.20;;;;;;5096261;28;9430;-70
2021/10/07 04:40:14;;;;;;;;;18.33;18.33;18.00;52.20;;;;;;5088696;28;8815;-68
2021/10/07 04:42:40;;;;;;;;;23.33;22.33;18.00;52.70;;;;;;5083128;28;8790;-69
2021/10/07 04:45:06;;;;;;;;;15.67;15.67;18.00;52.30;;;;;;5075996;28;8766;-70
2021/10/07 04:47:32;;;;;;;;;21.00;21.00;18.20;52.50;;;;;;5090165;28;8780;-71
2021/10/07 04:49:57;;;;;;;;;22.67;22.67;18.30;51.50;;;;;;5096387;28;8836;-69
2021/10/07 04:52:23;;;;;;;;;19.00;19.00;18.10;52.70;;;;;;5094886;28;8760;-68
2021/10/07 04:54:49;;;;;;;;;20.00;20.00;17.90;52.30;;;;;;5087783;28;8823;-68
2021/10/07 04:57:15;;;;;;;;;20.00;20.00;18.10;52.40;;;;;;5080617;28;8781;-73
2021/10/07 04:59:40;;;;;;;;;22.00;22.00;18.00;51.90;;;;;;5085469;28;8786;-70
2021/10/07 05:02:07;;;;;;;;;16.33;16.33;18.00;51.70;;;;;;5075479;28;8874;-70
2021/10/07 05:04:33;;;;;;;;;22.00;22.00;18.20;52.10;;;;;;5074963;28;8778;-69
2021/10/07 05:06:58;;;;;;;;;16.33;16.33;17.90;51.20;;;;;;5072871;28;8774;-67
2021/10/07 05:09:24;;;;;;;;;19.00;19.00;17.90;51.70;;;;;;5075044;28;8820;-70
2021/10/07 05:11:50;;;;;;;;;18.33;18.33;17.90;51.70;;;;;;5057036;28;8770;-73
2021/10/07 05:14:16;;;;;;;;;20.67;20.67;18.00;51.70;;;;;;5074416;28;8782;-73
2021/10/07 05:16:41;;;;;;;;;22.67;22.67;18.00;51.80;;;;;;5074838;28;8881;-72
2021/10/07 05:19:07;;;;;;;;;20.67;20.67;17.90;51.50;;;;;;5073623;28;8916;-72
2021/10/07 05:21:33;;;;;;;;;26.33;24.67;17.90;51.60;;;;;;5074180;28;8758;-72
2021/10/07 05:23:58;;;;;;;;;20.00;20.00;18.10;51.90;;;;;;5074920;28;8773;-72
2021/10/07 05:26:24;;;;;;;;;19.67;19.67;18.00;51.30;;;;;;5075428;28;8831;-74
2021/10/07 05:28:50;;;;;;;;;21.00;21.00;18.00;51.70;;;;;;5075384;28;8788;-73
2021/10/07 05:31:16;;;;;;;;;20.67;20.67;18.00;50.90;;;;;;5075148;28;8766;-70
2021/10/07 05:33:41;;;;;;;;;20.00;20.00;17.90;50.60;;;;;;5074846;28;8855;-68
2021/10/07 05:36:07;;;;;;;;;23.00;23.00;17.90;51.40;;;;;;5074717;28;8770;-70
2021/10/07 05:38:33;;;;;;;;;20.00;20.00;17.90;51.30;;;;;;5074654;28;8793;-72
2021/10/07 05:41:02;;;;;;;;;22.67;21.67;18.00;51.50;;;;;;5074820;28;8906;-69
2021/10/07 05:43:28;;;;;;;;;20.67;20.67;17.80;51.20;;;;;;5075126;28;8781;-68
2021/10/07 05:45:53;;;;;;;;;21.00;21.00;17.80;50.90;;;;;;5074591;28;8782;-70
2021/10/07 05:48:19;;;;;;;;;21.33;21.33;17.90;51.00;;;;;;5074847;28;8809;-68
2021/10/07 05:50:45;;;;;;;;;23.00;23.00;18.00;50.90;;;;;;5074892;28;8781;-70
2021/10/07 05:53:11;;;;;;;;;14.33;14.33;17.70;50.60;;;;;;5074939;28;9463;-70
2021/10/07 05:55:36;;;;;;;;;13.00;12.33;17.90;50.90;;;;;;5074831;28;8801;-69
2021/10/07 05:58:02;;;;;;;;;23.33;23.33;17.80;51.10;;;;;;5074825;28;9451;-61
2021/10/07 06:00:29;;;;;;;;;19.67;18.33;17.90;50.90;;;;;;5074812;28;8796;-63
2021/10/07 06:02:55;;;;;;;;;22.00;22.00;18.00;51.30;;;;;;5074767;28;8762;-62
2021/10/07 06:05:21;;;;;;;;;18.67;18.67;17.90;50.40;;;;;;5074502;28;8770;-64
2021/10/07 06:07:47;;;;;;;;;20.00;20.00;18.10;51.50;;;;;;5074471;28;8831;-62
2021/10/07 06:10:14;;;;;;;;;18.33;18.33;18.00;50.40;;;;;;5074795;28;8778;-61
2021/10/07 06:12:44;;;;;;;;;20.00;20.00;17.90;49.50;;;;;;5074457;28;8766;-63
2021/10/07 06:15:11;;;;;;;;;20.00;20.00;17.80;50.10;;;;;;5074286;28;8817;-63
2021/10/07 06:17:37;;;;;;;;;23.33;23.33;17.90;50.30;;;;;;5073779;28;8770;-62
2021/10/07 06:20:19;;;;;;;;;23.00;23.00;18.00;50.30;;;;;;5074623;28;8780;-67
2021/10/07 06:22:47;;;;;;;;;18.33;18.33;18.00;49.60;;;;;;5073866;28;8797;-61
2021/10/07 06:25:13;;;;;;;;;20.00;19.67;18.00;49.70;;;;;;5072787;28;8766;-61
2021/10/07 06:27:39;;;;;;;;;21.33;21.33;18.10;49.60;;;;;;5073223;28;8855;-62
2021/10/07 06:30:05;;;;;;;;;22.33;22.33;18.10;49.70;;;;;;5074445;28;8781;-61
2021/10/07 06:32:31;;;;;;;;;20.67;20.67;18.00;49.70;;;;;;5074158;28;8758;-62
2021/10/07 06:34:57;;;;;;;;;16.67;16.67;18.00;49.90;;;;;;5072603;28;8912;-63
2021/10/07 06:37:22;;;;;;;;;19.00;19.00;18.10;49.40;;;;;;5073916;28;8781;-63
2021/10/07 06:39:48;;;;;;;;;21.33;21.33;18.00;49.30;;;;;;5074119;28;8790;-62
2021/10/07 06:42:14;;;;;;;;;16.67;16.67;18.20;49.30;;;;;;5074041;28;8773;-65
2021/10/07 06:44:39;;;;;;;;;18.00;18.00;18.10;49.70;;;;;;5074063;28;8774;-62
2021/10/07 06:47:05;;;;;;;;;17.33;17.33;18.40;49.70;;;;;;5073936;28;8770;-63
2021/10/07 06:49:31;;;;;;;;;23.00;23.00;18.80;48.40;;;;;;5073979;28;8782;-71
2021/10/07 06:51:57;;;;;;;;;20.00;20.00;18.50;47.90;;;;;;5074105;28;8758;-63
2021/10/07 06:54:23;;;;;;;;;19.33;19.33;18.60;48.40;;;;;;5073849;28;8802;-64
2021/10/07 06:56:49;;;;;;;;;20.33;20.33;18.50;48.20;;;;;;5074290;28;8758;-62
2021/10/07 06:59:14;;;;;;;;;26.33;26.33;18.40;47.90;;;;;;5073839;28;8794;-62
2021/10/07 07:01:40;;;;;;;;;22.00;22.00;18.30;48.80;;;;;;5074122;28;8770;-62
2021/10/07 07:04:06;;;;;;;;;19.33;19.33;18.10;48.30;;;;;;5073772;28;8778;-62
2021/10/07 07:06:32;;;;;;;;;20.67;20.67;18.10;48.10;;;;;;5073804;28;8762;-64
2021/10/07 07:09:00;;;;;;;;;10.33;8.33;18.10;48.60;;;;;;5074101;28;8785;-63
2021/10/07 07:11:27;;;;;;;;;19.33;19.33;18.10;48.50;;;;;;5073988;28;8762;-63
2021/10/07 07:13:54;;;;;;;;;20.67;20.67;18.20;48.70;;;;;;5073833;28;8770;-64
2021/10/07 07:16:20;;;;;;;;;21.00;21.00;18.30;48.50;;;;;;5073964;28;8774;-64
2021/10/07 07:18:46;;;;;;;;;19.33;19.33;18.30;47.90;;;;;;5073746;28;8788;-63
2021/10/07 07:21:11;;;;;;;;;20.00;20.00;18.30;47.90;;;;;;5073793;28;8754;-62
2021/10/07 07:23:37;;;;;;;;;20.00;20.00;18.40;47.60;;;;;;5073983;28;8795;-67
2021/10/07 07:26:03;;;;;;;;;20.00;20.00;18.40;47.50;;;;;;5073744;28;9405;-66
2021/10/07 07:28:29;;;;;;;;;21.00;21.00;18.40;47.80;;;;;;5073793;28;8773;-65
2021/10/07 07:30:55;;;;;;;;;18.67;18.67;18.60;47.80;;;;;;5076089;28;8889;-66
2021/10/07 07:33:24;;;;;;;;;21.33;21.33;18.60;47.60;;;;;;5077288;28;8750;-65
2021/10/07 07:35:50;;;;;;;;;20.67;20.67;18.70;47.30;;;;;;5077081;28;8832;-66
2021/10/07 07:38:16;;;;;;;;;20.67;20.67;18.60;47.10;;;;;;5076848;28;8805;-68
2021/10/07 07:40:43;;;;;;;;;24.33;22.33;18.70;47.60;;;;;;5076727;28;8839;-60
2021/10/07 07:43:10;;;;;;;;;21.33;21.33;18.90;46.60;;;;;;5077155;28;8778;-62
2021/10/07 07:45:37;;;;;;;;;20.33;20.33;18.90;46.90;;;;;;5077346;28;9372;-64
2021/10/07 07:48:03;;;;;;;;;22.33;22.33;19.10;46.20;;;;;;5077193;28;8873;-62
2021/10/07 07:50:29;;;;;;;;;20.33;20.33;19.10;46.70;;;;;;5077002;28;8774;-62
2021/10/07 07:52:58;;;;;;;;;22.67;22.67;19.20;46.50;;;;;;5077124;28;8758;-63
2021/10/07 07:55:24;;;;;;;;;22.67;22.67;19.20;46.20;;;;;;5076680;28;8824;-64
2021/10/07 07:57:50;;;;;;;;;21.00;21.00;19.10;46.40;;;;;;5076591;28;8781;-62
2021/10/07 08:00:16;;;;;;;;;19.00;19.00;19.10;46.30;;;;;;5076940;28;8824;-63
2021/10/07 08:02:42;;;;;;;;;20.67;20.67;19.00;45.70;;;;;;5076666;28;8770;-61
2021/10/07 08:05:08;;;;;;;;;20.67;20.33;19.20;46.30;;;;;;5076823;28;8776;-63
2021/10/07 08:07:34;;;;;;;;;14.67;14.67;19.10;46.30;;;;;;5076384;28;8792;-63
2021/10/07 08:10:00;;;;;;;;;19.00;19.00;19.10;46.40;;;;;;5076643;28;8762;-61
2021/10/07 08:12:31;;;;;;;;;20.67;20.67;19.10;46.10;;;;;;5076619;28;8770;-62
2021/10/07 08:14:57;;;;;;;;;18.00;18.00;18.90;46.20;;;;;;5076661;28;8801;-64
2021/10/07 08:17:23;;;;;;;;;14.00;14.00;18.90;46.00;;;;;;5076666;28;8876;-62
2021/10/07 08:19:49;;;;;;;;;18.67;18.67;18.90;46.30;;;;;;5076398;28;8781;-63
2021/10/07 08:22:15;;;;;;;;;16.67;16.67;18.90;45.40;;;;;;5076226;28;8794;-63
2021/10/07 08:24:41;;;;;;;;;17.33;17.33;18.80;45.60;;;;;;5076284;28;8786;-62
2021/10/07 08:27:07;;;;;;;;;20.00;20.00;18.80;45.70;;;;;;5072929;28;8820;-62
2021/10/07 08:29:33;;;;;;;;;22.33;22.00;18.90;46.20;;;;;;5076539;28;8851;-64
2021/10/07 08:31:58;;;;;;;;;13.00;13.00;18.70;46.10;;;;;;5076237;28;8796;-64
2021/10/07 08:34:24;;;;;;;;;23.67;23.67;19.00;46.50;;;;;;5075776;28;8863;-68
2021/10/07 08:36:51;;;;;;;;;16.00;16.00;19.20;46.00;;;;;;5076096;28;8785;-68
2021/10/07 08:39:18;;;;;;;;;20.67;20.67;19.20;45.80;;;;;;5076079;28;8789;-66
2021/10/07 08:41:45;;;;;;;;;17.00;17.00;19.40;45.30;;;;;;5075906;28;8930;-70
2021/10/07 08:44:14;;;;;;;;;19.00;19.00;19.40;44.50;;;;;;5075865;28;8789;-62
2021/10/07 08:46:44;;;;;;;;;17.33;17.33;19.20;44.20;;;;;;5076283;28;8750;-65
2021/10/07 08:49:13;;;;;;;;;20.00;19.33;19.10;44.10;;;;;;5075953;28;8782;-67
2021/10/07 08:51:40;;;;;;;;;21.67;21.67;19.50;44.30;;;;;;5076096;28;8782;-64
2021/10/07 08:54:06;;;;;;;;;16.33;16.00;19.40;44.90;;;;;;5075698;28;8762;-65
2021/10/07 08:56:32;;;;;;;;;13.67;13.67;19.30;43.70;;;;;;5075727;28;8843;-64
2021/10/07 08:59:00;;;;;;;;;17.67;17.67;19.50;44.60;;;;;;5075483;28;8817;-64
2021/10/07 09:01:37;;;;;;;;;17.00;17.00;19.30;43.50;;;;;;5075506;28;8770;-64
2021/10/07 09:04:26;;;;;;;;;16.33;16.33;19.50;43.50;;;;;;5075819;28;8862;-65
2021/10/07 09:06:52;;;;;;;;;19.67;18.00;19.50;42.90;;;;;;5075628;28;8778;-65
2021/10/07 09:09:18;;;;;;;;;18.67;18.67;19.80;43.10;;;;;;5075279;28;8850;-65
2021/10/07 09:11:53;;;;;;;;;16.33;16.33;19.80;43.00;;;;;;5075476;28;8758;-66
2021/10/07 09:14:24;;;;;;;;;15.00;15.00;19.50;43.00;;;;;;5075231;28;8918;-66
2021/10/07 09:16:51;;;;;;;;;13.33;13.33;19.30;42.70;;;;;;5075466;28;8794;-65
2021/10/07 09:19:19;;;;;;;;;13.33;13.33;19.60;42.80;;;;;;5075386;28;8754;-64
2021/10/07 09:21:47;;;;;;;;;15.33;15.33;19.50;42.40;;;;;;5075520;28;8778;-64
2021/10/07 09:24:37;;;;;;;;;17.33;17.33;19.50;42.50;;;;;;5075088;28;8792;-65
2021/10/07 09:27:13;;;;;;;;;16.00;16.00;19.60;43.00;;;;;;5075075;28;8758;-64
2021/10/07 09:29:51;;;;;;;;;17.67;17.67;19.50;43.00;;;;;;5074920;28;8798;-66
2021/10/07 09:32:47;;;;;;;;;14.67;14.67;19.70;42.50;;;;;;5075050;28;8743;-66
2021/10/07 09:35:15;;;;;;;;;10.67;10.67;19.80;41.90;;;;;;5058588;28;8830;-64
2021/10/07 09:37:49;;;;;;;;;14.00;14.00;19.50;42.20;;;;;;5074633;28;8851;-64
2021/10/07 09:40:24;;;;;;;;;15.00;15.00;19.50;42.60;;;;;;5074810;28;8762;-65
2021/10/07 09:42:59;;;;;;;;;9.00;9.00;19.40;42.60;;;;;;5074926;28;8818;-64
2021/10/07 09:45:28;;;;;;;;;13.67;13.67;19.30;42.80;;;;;;5074818;28;8774;-64
2021/10/07 09:47:55;;;;;;;;;12.33;12.33;19.50;43.00;;;;;;5074908;28;8804;-63
2021/10/07 09:50:25;;;;;;;;;17.00;17.00;19.40;42.70;;;;;;5074787;28;8778;-64
2021/10/07 09:52:59;;;;;;;;;14.67;14.67;19.40;42.80;;;;;;5074188;28;8788;-64
2021/10/07 09:55:29;;;;;;;;;15.00;15.00;19.20;43.30;;;;;;5074842;28;8873;-65
2021/10/07 09:57:56;;;;;;;;;17.67;17.67;19.20;42.60;;;;;;5074866;28;8764;-64
2021/10/07 10:00:26;;;;;;;;;15.67;15.67;19.00;43.30;;;;;;5074529;28;8805;-64
2021/10/07 10:02:54;;;;;;;;;12.33;12.33;19.10;43.20;;;;;;5074489;28;8774;-64
2021/10/07 10:05:20;;;;;;;;;15.00;15.00;19.10;43.40;;;;;;5074424;28;9493;-64
2021/10/07 10:07:46;;;;;;;;;14.67;14.67;19.00;43.30;;;;;;5074328;28;8766;-64
2021/10/07 10:10:13;;;;;;;;;16.00;16.00;18.90;43.50;;;;;;5074388;28;8778;-64
2021/10/07 10:12:40;;;;;;;;;17.00;17.00;18.90;43.50;;;;;;5074701;28;9591;-63
2021/10/07 10:15:07;;;;;;;;;14.67;14.67;18.70;43.50;;;;;;5074319;28;8816;-64
2021/10/07 10:17:34;;;;;;;;;16.00;16.00;18.80;43.40;;;;;;5074420;28;8750;-63
2021/10/07 10:20:21;;;;;;;;;15.00;14.33;18.90;43.40;;;;;;5074653;28;8782;-64
2021/10/07 10:23:00;;;;;;;;;16.00;16.00;18.70;43.20;;;;;;5071427;28;8770;-62
2021/10/07 10:25:30;;;;;;;;;14.00;14.00;18.70;43.70;;;;;;5063114;28;8758;-62
2021/10/07 10:28:07;;;;;;;;;15.33;15.33;18.60;45.10;;;;;;5062995;28;8837;-62
2021/10/07 10:31:06;;;;;;;;;17.00;17.00;19.00;44.20;;;;;;5062873;28;8784;-61
2021/10/07 10:33:40;;;;;;;;;14.33;14.33;18.80;43.30;;;;;;5063277;28;8812;-61
2021/10/07 10:36:24;;;;;;;;;18.33;18.33;19.00;43.50;;;;;;5063848;28;8825;-61
2021/10/07 10:39:14;;;;;;;;;12.00;12.00;18.80;43.10;;;;;;5061923;28;8792;-61
2021/10/07 10:41:55;;;;;;;;;15.67;15.67;18.90;43.20;;;;;;5063547;28;8784;-66
2021/10/07 10:44:26;;;;;;;;;12.67;12.67;18.80;43.30;;;;;;5063531;28;8757;-63
2021/10/07 10:47:07;;;;;;;;;15.33;15.00;18.60;43.50;;;;;;5061381;28;8780;-64
2021/10/07 10:49:38;;;;;;;;;16.00;16.00;18.60;43.90;;;;;;5062109;28;8764;-64
2021/10/07 10:52:16;;;;;;;;;15.00;15.00;18.90;44.20;;;;;;5061486;28;9504;-61
2021/10/07 10:54:43;;;;;;;;;14.00;14.00;19.00;44.00;;;;;;5055778;28;8787;-62
2021/10/07 10:57:24;;;;;;;;;14.33;14.33;19.00;43.70;;;;;;5054278;28;8760;-60
2021/10/07 11:00:14;;;;;;;;;21.67;21.67;19.10;43.50;;;;;;5054195;28;8812;-58
2021/10/07 11:02:47;;;;;;;;;15.00;15.00;19.20;43.00;;;;;;5052584;28;8891;-60
2021/10/07 11:05:17;;;;;;;;;18.00;18.00;19.30;42.70;;;;;;5080023;28;8789;-60
2021/10/07 11:07:45;;;;;;;;;15.33;15.33;19.40;42.50;;;;;;5081472;28;8798;-60
2021/10/07 11:10:28;;;;;;;;;14.00;14.00;19.30;42.70;;;;;;5077322;28;8847;-58
2021/10/07 11:12:57;;;;;;;;;12.33;12.33;19.30;42.20;;;;;;5079543;28;9509;-61
2021/10/07 11:15:26;;;;;;;;;16.33;16.33;19.80;42.40;;;;;;5079227;28;8811;-60
2021/10/07 11:17:54;;;;;;;;;18.33;18.33;19.60;42.20;;;;;;5071333;28;8776;-61
2021/10/07 11:20:30;;;;;;;;;13.67;13.67;19.70;42.10;;;;;;5077269;28;9514;-57
2021/10/07 11:23:17;;;;;;;;;16.00;15.00;19.60;41.90;;;;;;5060838;28;8768;-58
2021/10/07 11:25:49;;;;;;;;;12.00;12.00;19.60;41.90;;;;;;5057772;28;8870;-59
2021/10/07 11:28:23;;;;;;;;;12.67;12.67;19.60;41.50;;;;;;5057325;28;8882;-60
2021/10/07 11:30:49;;;;;;;;;15.00;15.00;19.70;41.30;;;;;;5057563;28;9474;-62
2021/10/07 11:33:15;;;;;;;;;9.67;9.67;19.70;40.80;;;;;;5056994;28;8841;-62
2021/10/07 11:35:41;;;;;;;;;12.33;12.33;19.50;41.10;;;;;;5057337;28;8784;-61
2021/10/07 11:38:09;;;;;;;;;13.67;13.67;19.40;41.10;;;;;;5057164;28;8893;-60
2021/10/07 11:40:42;;;;;;;;;12.67;12.67;19.50;41.90;;;;;;5057069;28;8894;-61
2021/10/07 11:43:22;;;;;;;;;11.67;11.33;19.30;41.70;;;;;;5057092;28;9457;-63
2021/10/07 11:45:53;;;;;;;;;12.67;12.67;19.40;42.20;;;;;;5057369;28;8849;-63
2021/10/07 11:48:20;;;;;;;;;12.00;12.00;19.40;41.70;;;;;;5073882;28;8822;-63
2021/10/07 11:50:56;;;;;;;;;12.33;12.33;19.50;41.90;;;;;;5097268;28;8771;-65
2021/10/07 11:53:28;;;;;;;;;11.00;11.00;19.70;41.60;;;;;;5097491;28;8822;-63
2021/10/07 11:55:54;;;;;;;;;11.00;11.00;19.60;41.90;;;;;;5084527;28;8804;-62
2021/10/07 11:58:20;;;;;;;;;9.67;9.67;19.60;42.80;;;;;;5097205;28;8784;-64
2021/10/07 12:00:48;;;;;;;;;13.33;13.33;19.60;41.90;;;;;;5095695;28;9407;-63
2021/10/07 12:03:26;;;;;;;;;12.67;12.67;19.50;42.30;;;;;;5082998;28;8750;-61
2021/10/07 12:06:17;;;;;;;;;8.33;8.33;19.50;42.20;;;;;;5066826;28;8815;-62
2021/10/07 12:08:46;;;;;;;;;9.00;9.00;19.50;42.90;;;;;;5056450;28;8775;-61
2021/10/07 12:11:23;;;;;;;;;10.67;10.67;19.10;42.60;;;;;;5086804;28;8774;-61
2021/10/07 12:13:53;;;;;;;;;11.33;11.33;19.40;43.80;;;;;;5058704;28;8774;-62
2021/10/07 12:16:28;;;;;;;;;12.67;12.67;19.40;43.50;;;;;;5076080;28;9526;-66
2021/10/07 12:18:57;;;;;;;;;14.33;14.33;19.30;44.40;;;;;;5076650;28;8865;-63
2021/10/07 12:21:25;;;;;;;;;11.33;11.33;19.30;44.00;;;;;;5076502;28;8746;-65
2021/10/07 12:23:57;;;;;;;;;16.67;16.67;19.20;44.30;;;;;;5077556;28;8841;-64
2021/10/07 12:26:31;;;;;;;;;15.33;15.33;19.10;44.40;;;;;;5084077;28;8867;-65
2021/10/07 12:28:59;;;;;;;;;16.00;16.00;19.20;44.30;;;;;;5087636;28;8803;-67
2021/10/07 12:31:30;;;;;;;;;13.67;13.67;19.10;44.70;;;;;;5083154;28;9435;-66
2021/10/07 12:34:02;;;;;;;;;14.33;14.33;19.30;45.20;;;;;;5076030;28;9534;-64
2021/10/07 12:36:39;;;;;;;;;13.67;13.67;19.30;45.20;;;;;;5065001;28;8819;-64
2021/10/07 12:39:19;;;;;;;;;15.00;15.00;19.30;46.30;;;;;;5076101;28;8863;-67
2021/10/07 12:41:45;;;;;;;;;14.67;14.67;19.20;47.20;;;;;;5078219;28;9570;-64
2021/10/07 12:44:18;;;;;;;;;15.67;15.67;18.90;47.30;;;;;;5065524;28;8773;-67
2021/10/07 12:46:50;;;;;;;;;16.00;16.00;18.70;47.70;;;;;;5082899;28;9526;-65
2021/10/07 12:49:30;;;;;;;;;14.67;14.67;18.70;49.20;;;;;;5096444;28;8775;-66